createdAt,value
2019-03-31T00:00:29.948Z,1015.55
2019-03-31T00:01:29.973Z,1015.52
2019-03-31T00:02:29.994Z,1015.52
2019-03-31T00:03:29.999Z,1015.51
2019-03-31T00:04:30.021Z,1015.49
2019-03-31T00:05:30.043Z,1015.49
2019-03-31T00:06:30.058Z,1015.54
2019-03-31T00:07:30.069Z,1015.48
2019-03-31T00:08:30.083Z,1015.49
2019-03-31T00:09:30.096Z,1015.47
2019-03-31T00:10:30.114Z,1015.48
2019-03-31T00:11:30.123Z,1015.50
2019-03-31T00:12:30.134Z,1015.49
2019-03-31T00:13:30.155Z,1015.45
2019-03-31T00:14:30.167Z,1015.48
2019-03-31T00:15:30.179Z,1015.48
2019-03-31T00:16:30.197Z,1015.48
2019-03-31T00:17:30.209Z,1015.45
2019-03-31T00:18:30.222Z,1015.42
2019-03-31T00:19:30.241Z,1015.45
2019-03-31T00:20:30.254Z,1015.46
2019-03-31T00:21:30.268Z,1015.49
2019-03-31T00:22:30.308Z,1015.43
2019-03-31T00:23:30.302Z,1015.47
2019-03-31T00:24:30.308Z,1015.47
2019-03-31T00:25:30.337Z,1015.43
2019-03-31T00:26:30.344Z,1015.45
2019-03-31T00:27:30.364Z,1015.42
2019-03-31T00:28:30.372Z,1015.44
2019-03-31T00:29:30.407Z,1015.44
2019-03-31T00:30:30.406Z,1015.46
2019-03-31T00:31:30.414Z,1015.46
2019-03-31T00:32:30.430Z,1015.45
2019-03-31T00:33:30.446Z,1015.42
2019-03-31T00:34:30.468Z,1015.43
2019-03-31T00:35:31.343Z,1015.46
2019-03-31T00:36:30.491Z,1015.50
2019-03-31T00:37:30.638Z,1015.48
2019-03-31T00:38:30.523Z,1015.48
2019-03-31T00:39:30.660Z,1015.48
2019-03-31T00:40:30.548Z,1015.49
2019-03-31T00:41:30.564Z,1015.51
2019-03-31T00:42:30.576Z,1015.53
2019-03-31T00:43:30.606Z,1015.56
2019-03-31T00:44:30.610Z,1015.53
2019-03-31T00:45:30.630Z,1015.53
2019-03-31T00:46:30.639Z,1015.48
2019-03-31T00:47:30.660Z,1015.51
2019-03-31T00:48:30.664Z,1015.52
2019-03-31T00:49:30.684Z,1015.49
2019-03-31T00:50:30.698Z,1015.52
2019-03-31T00:51:30.710Z,1015.45
2019-03-31T00:52:30.724Z,1015.50
2019-03-31T00:53:30.739Z,1015.46
2019-03-31T00:54:30.773Z,1015.48
2019-03-31T00:55:30.770Z,1015.47
2019-03-31T00:56:30.784Z,1015.43
2019-03-31T00:57:30.796Z,1015.43
2019-03-31T00:58:30.815Z,1015.47
2019-03-31T00:59:30.826Z,1015.44
2019-03-31T01:00:30.848Z,1015.44
2019-03-31T01:01:36.888Z,1015.42
2019-03-31T01:02:30.873Z,1015.45
2019-03-31T01:03:30.890Z,1015.46
2019-03-31T01:04:30.905Z,1015.42
2019-03-31T01:05:30.907Z,1015.43
2019-03-31T01:06:30.928Z,1015.44
2019-03-31T01:07:30.948Z,1015.44
2019-03-31T01:08:30.958Z,1015.42
2019-03-31T01:09:30.973Z,1015.42
2019-03-31T01:10:30.998Z,1015.39
2019-03-31T01:11:31.008Z,1015.44
2019-03-31T01:12:31.008Z,1015.39
2019-03-31T01:13:31.024Z,1015.41
2019-03-31T01:14:31.046Z,1015.42
2019-03-31T01:15:31.070Z,1015.43
2019-03-31T01:16:31.084Z,1015.40
2019-03-31T01:17:31.086Z,1015.40
2019-03-31T01:18:31.092Z,1015.44
2019-03-31T01:19:31.116Z,1015.42
2019-03-31T01:20:31.131Z,1015.38
2019-03-31T01:21:31.153Z,1015.37
2019-03-31T01:22:31.162Z,1015.40
2019-03-31T01:23:31.180Z,1015.37
2019-03-31T01:24:31.186Z,1015.41
2019-03-31T01:25:31.200Z,1015.37
2019-03-31T01:26:31.217Z,1015.39
2019-03-31T01:27:31.231Z,1015.39
2019-03-31T01:28:31.246Z,1015.38
2019-03-31T01:29:31.260Z,1015.33
2019-03-31T01:30:31.286Z,1015.38
2019-03-31T01:31:31.306Z,1015.39
2019-03-31T01:32:31.304Z,1015.35
2019-03-31T01:33:31.314Z,1015.34
2019-03-31T01:34:31.340Z,1015.34
2019-03-31T01:35:31.350Z,1015.37
2019-03-31T01:36:31.362Z,1015.40
2019-03-31T01:37:31.374Z,1015.36
2019-03-31T01:38:31.387Z,1015.39
2019-03-31T01:39:31.408Z,1015.37
2019-03-31T01:40:31.413Z,1015.40
2019-03-31T01:41:31.430Z,1015.36
2019-03-31T01:42:31.446Z,1015.37
2019-03-31T01:43:31.460Z,1015.38
2019-03-31T01:44:31.475Z,1015.36
2019-03-31T01:45:31.490Z,1015.33
2019-03-31T01:46:31.501Z,1015.38
2019-03-31T01:47:31.518Z,1015.37
2019-03-31T01:48:31.534Z,1015.37
2019-03-31T01:49:31.560Z,1015.33
2019-03-31T01:50:31.563Z,1015.35
2019-03-31T01:51:31.574Z,1015.40
2019-03-31T01:52:31.590Z,1015.34
2019-03-31T01:53:31.598Z,1015.38
2019-03-31T01:54:31.642Z,1015.34
2019-03-31T01:55:31.631Z,1015.37
2019-03-31T01:56:31.644Z,1015.36
2019-03-31T01:57:31.658Z,1015.39
2019-03-31T01:58:31.681Z,1015.35
2019-03-31T01:59:31.699Z,1015.41
2019-03-31T02:00:31.698Z,1015.40
2019-03-31T02:01:31.717Z,1015.39
2019-03-31T02:02:31.730Z,1015.40
2019-03-31T02:03:31.753Z,1015.35
2019-03-31T02:04:31.758Z,1015.38
2019-03-31T02:05:31.774Z,1015.33
2019-03-31T02:06:31.785Z,1015.36
2019-03-31T02:07:31.798Z,1015.30
2019-03-31T02:08:31.819Z,1015.33
2019-03-31T02:09:31.829Z,1015.34
2019-03-31T02:10:31.844Z,1015.35
2019-03-31T02:11:31.857Z,1015.34
2019-03-31T02:12:31.898Z,1015.36
2019-03-31T02:13:31.892Z,1015.34
2019-03-31T02:14:31.898Z,1015.32
2019-03-31T02:15:31.918Z,1015.32
2019-03-31T02:16:31.943Z,1015.37
2019-03-31T02:17:31.937Z,1015.32
2019-03-31T02:18:31.955Z,1015.30
2019-03-31T02:19:31.972Z,1015.37
2019-03-31T02:20:31.982Z,1015.31
2019-03-31T02:21:31.991Z,1015.31
2019-03-31T02:22:32.010Z,1015.34
2019-03-31T02:23:32.025Z,1015.32
2019-03-31T02:24:32.029Z,1015.30
2019-03-31T02:25:32.050Z,1015.33
2019-03-31T02:26:32.068Z,1015.35
2019-03-31T02:27:32.091Z,1015.30
2019-03-31T02:28:32.093Z,1015.33
2019-03-31T02:29:32.111Z,1015.35
2019-03-31T02:30:32.145Z,1015.37
2019-03-31T02:31:32.135Z,1015.38
2019-03-31T02:32:32.868Z,1015.39
2019-03-31T02:33:32.164Z,1015.42
2019-03-31T02:34:32.183Z,1015.41
2019-03-31T02:35:32.193Z,1015.45
2019-03-31T02:36:32.236Z,1015.44
2019-03-31T02:37:32.226Z,1015.46
2019-03-31T02:38:32.251Z,1015.49
2019-03-31T02:39:32.250Z,1015.52
2019-03-31T02:40:32.260Z,1015.49
2019-03-31T02:41:32.278Z,1015.54
2019-03-31T02:42:32.294Z,1015.52
2019-03-31T02:43:32.299Z,1015.50
2019-03-31T02:44:32.316Z,1015.45
2019-03-31T02:45:32.334Z,1015.43
2019-03-31T02:46:32.363Z,1015.45
2019-03-31T02:47:32.358Z,1015.48
2019-03-31T02:48:32.376Z,1015.50
2019-03-31T02:49:32.389Z,1015.48
2019-03-31T02:50:32.397Z,1015.50
2019-03-31T02:51:32.420Z,1015.52
2019-03-31T02:52:32.428Z,1015.49
2019-03-31T02:53:32.444Z,1015.51
2019-03-31T02:54:32.508Z,1015.48
2019-03-31T02:55:32.471Z,1015.52
2019-03-31T02:56:32.483Z,1015.48
2019-03-31T02:57:32.499Z,1015.50
2019-03-31T02:58:32.512Z,1015.46
2019-03-31T02:59:32.529Z,1015.47
2019-03-31T03:00:32.539Z,1015.46
2019-03-31T03:01:32.559Z,1015.44
2019-03-31T03:02:41.450Z,1015.43
2019-03-31T03:03:33.367Z,1015.38
2019-03-31T03:04:32.602Z,1015.37
2019-03-31T03:05:32.619Z,1015.38
2019-03-31T03:06:32.620Z,1015.35
2019-03-31T03:07:32.633Z,1015.36
2019-03-31T03:08:32.649Z,1015.39
2019-03-31T03:09:32.679Z,1015.39
2019-03-31T03:10:32.677Z,1015.43
2019-03-31T03:11:32.697Z,1015.37
2019-03-31T03:12:32.707Z,1015.43
2019-03-31T03:13:32.719Z,1015.45
2019-03-31T03:14:32.734Z,1015.43
2019-03-31T03:15:32.748Z,1015.45
2019-03-31T03:16:32.752Z,1015.44
2019-03-31T03:17:32.774Z,1015.41
2019-03-31T03:18:32.790Z,1015.38
2019-03-31T03:19:32.802Z,1015.39
2019-03-31T03:20:32.809Z,1015.39
2019-03-31T03:21:32.825Z,1015.33
2019-03-31T03:22:32.846Z,1015.39
2019-03-31T03:23:32.852Z,1015.33
2019-03-31T03:24:32.867Z,1015.32
2019-03-31T03:25:32.879Z,1015.32
2019-03-31T03:26:32.903Z,1015.33
2019-03-31T03:27:32.907Z,1015.32
2019-03-31T03:28:32.918Z,1015.35
2019-03-31T03:29:32.938Z,1015.34
2019-03-31T03:30:33.047Z,1015.34
2019-03-31T03:31:32.983Z,1015.37
2019-03-31T03:32:32.979Z,1015.37
2019-03-31T03:33:32.999Z,1015.41
2019-03-31T03:34:33.031Z,1015.44
2019-03-31T03:35:33.017Z,1015.44
2019-03-31T03:36:33.033Z,1015.44
2019-03-31T03:37:33.045Z,1015.50
2019-03-31T03:38:33.065Z,1015.53
2019-03-31T03:39:33.067Z,1015.48
2019-03-31T03:40:33.084Z,1015.49
2019-03-31T03:41:33.100Z,1015.49
2019-03-31T03:42:33.110Z,1015.51
2019-03-31T03:43:33.153Z,1015.51
2019-03-31T03:44:33.133Z,1015.50
2019-03-31T03:45:33.172Z,1015.55
2019-03-31T03:46:33.165Z,1015.57
2019-03-31T03:47:33.178Z,1015.63
2019-03-31T03:48:33.191Z,1015.67
2019-03-31T03:49:33.202Z,1015.62
2019-03-31T03:50:33.222Z,1015.60
2019-03-31T03:51:33.235Z,1015.58
2019-03-31T03:52:33.271Z,1015.62
2019-03-31T03:53:33.260Z,1015.60
2019-03-31T03:54:33.274Z,1015.64
2019-03-31T03:55:33.284Z,1015.64
2019-03-31T03:56:33.296Z,1015.68
2019-03-31T03:57:33.312Z,1015.65
2019-03-31T03:58:33.331Z,1015.68
2019-03-31T03:59:33.338Z,1015.66
2019-03-31T04:00:33.351Z,1015.67
2019-03-31T04:01:33.370Z,1015.61
2019-03-31T04:02:33.379Z,1015.59
2019-03-31T04:03:33.397Z,1015.60
2019-03-31T04:04:33.411Z,1015.55
2019-03-31T04:05:33.423Z,1015.59
2019-03-31T04:06:33.464Z,1015.58
2019-03-31T04:07:33.451Z,1015.56
2019-03-31T04:08:33.459Z,1015.57
2019-03-31T04:09:33.473Z,1015.60
2019-03-31T04:10:33.488Z,1015.58
2019-03-31T04:11:33.519Z,1015.59
2019-03-31T04:12:33.513Z,1015.61
2019-03-31T04:13:33.531Z,1015.64
2019-03-31T04:14:33.536Z,1015.62
2019-03-31T04:15:33.567Z,1015.64
2019-03-31T04:16:33.568Z,1015.63
2019-03-31T04:17:33.579Z,1015.65
2019-03-31T04:18:33.594Z,1015.64
2019-03-31T04:19:33.605Z,1015.65
2019-03-31T04:20:33.614Z,1015.69
2019-03-31T04:21:33.630Z,1015.70
2019-03-31T04:22:33.647Z,1015.67
2019-03-31T04:23:33.678Z,1015.74
2019-03-31T04:24:33.684Z,1015.74
2019-03-31T04:25:33.685Z,1015.79
2019-03-31T04:26:33.704Z,1015.74
2019-03-31T04:27:33.710Z,1015.75
2019-03-31T04:28:33.779Z,1015.72
2019-03-31T04:29:33.733Z,1015.72
2019-03-31T04:30:33.754Z,1015.75
2019-03-31T04:31:33.772Z,1015.75
2019-03-31T04:32:38.381Z,1015.78
2019-03-31T04:33:49.771Z,1015.79
2019-03-31T04:34:33.805Z,1015.83
2019-03-31T04:35:33.811Z,1015.80
2019-03-31T04:36:33.828Z,1015.77
2019-03-31T04:37:33.842Z,1015.79
2019-03-31T04:38:33.861Z,1015.80
2019-03-31T04:39:33.870Z,1015.79
2019-03-31T04:40:33.883Z,1015.80
2019-03-31T04:41:33.895Z,1015.80
2019-03-31T04:42:33.912Z,1015.84
2019-03-31T04:43:33.913Z,1015.84
2019-03-31T04:44:33.936Z,1015.78
2019-03-31T04:45:33.938Z,1015.79
2019-03-31T04:46:34.001Z,1015.77
2019-03-31T04:47:33.976Z,1015.81
2019-03-31T04:48:33.989Z,1015.82
2019-03-31T04:49:34.011Z,1015.85
2019-03-31T04:50:34.050Z,1015.84
2019-03-31T04:51:34.022Z,1015.83
2019-03-31T04:52:34.038Z,1015.86
2019-03-31T04:53:34.052Z,1015.89
2019-03-31T04:54:34.066Z,1015.84
2019-03-31T04:55:34.078Z,1015.88
2019-03-31T04:56:34.078Z,1015.83
2019-03-31T04:57:34.102Z,1015.91
2019-03-31T04:58:34.112Z,1015.93
2019-03-31T04:59:34.148Z,1015.88
2019-03-31T05:00:34.144Z,1015.89
2019-03-31T05:01:34.152Z,1015.89
2019-03-31T05:02:34.256Z,1015.93
2019-03-31T05:03:34.171Z,1015.95
2019-03-31T05:04:34.207Z,1015.97
2019-03-31T05:05:34.210Z,1015.97
2019-03-31T05:06:34.229Z,1015.98
2019-03-31T05:07:34.239Z,1016.03
2019-03-31T05:08:34.274Z,1016.01
2019-03-31T05:09:34.260Z,1015.99
2019-03-31T05:10:34.887Z,1016.03
2019-03-31T05:11:34.285Z,1016.05
2019-03-31T05:12:34.308Z,1016.05
2019-03-31T05:13:34.314Z,1016.05
2019-03-31T05:14:34.346Z,1016.12
2019-03-31T05:15:34.340Z,1016.10
2019-03-31T05:16:34.344Z,1016.13
2019-03-31T05:17:35.955Z,1016.16
2019-03-31T05:18:34.378Z,1016.21
2019-03-31T05:19:34.392Z,1016.18
2019-03-31T05:20:34.401Z,1016.22
2019-03-31T05:21:34.419Z,1016.28
2019-03-31T05:22:34.435Z,1016.27
2019-03-31T05:23:34.441Z,1016.26
2019-03-31T05:24:34.457Z,1016.26
2019-03-31T05:25:34.471Z,1016.25
2019-03-31T05:26:34.561Z,1016.27
2019-03-31T05:27:34.489Z,1016.32
2019-03-31T05:28:34.508Z,1016.34
2019-03-31T05:29:34.519Z,1016.33
2019-03-31T05:30:34.532Z,1016.36
2019-03-31T05:31:34.546Z,1016.38
2019-03-31T05:32:34.558Z,1016.36
2019-03-31T05:33:34.574Z,1016.38
2019-03-31T05:34:34.588Z,1016.45
2019-03-31T05:35:34.592Z,1016.43
2019-03-31T05:36:34.606Z,1016.45
2019-03-31T05:37:34.624Z,1016.41
2019-03-31T05:38:34.636Z,1016.47
2019-03-31T05:39:34.676Z,1016.42
2019-03-31T05:40:34.664Z,1016.46
2019-03-31T05:41:34.775Z,1016.48
2019-03-31T05:42:34.685Z,1016.44
2019-03-31T05:43:34.710Z,1016.44
2019-03-31T05:44:34.731Z,1016.45
2019-03-31T05:45:34.721Z,1016.48
2019-03-31T05:46:34.737Z,1016.42
2019-03-31T05:47:34.745Z,1016.42
2019-03-31T05:48:34.767Z,1016.45
2019-03-31T05:49:34.783Z,1016.43
2019-03-31T05:50:34.804Z,1016.47
2019-03-31T05:51:34.812Z,1016.48
2019-03-31T05:52:34.812Z,1016.51
2019-03-31T05:53:34.831Z,1016.54
2019-03-31T05:54:35.192Z,1016.52
2019-03-31T05:55:34.868Z,1016.54
2019-03-31T05:56:34.869Z,1016.50
2019-03-31T05:57:34.897Z,1016.55
2019-03-31T05:58:34.897Z,1016.51
2019-03-31T05:59:34.912Z,1016.55
2019-03-31T06:00:34.918Z,1016.51
2019-03-31T06:01:34.957Z,1016.56
2019-03-31T06:02:34.950Z,1016.55
2019-03-31T06:03:34.962Z,1016.57
2019-03-31T06:04:34.969Z,1016.50
2019-03-31T06:05:34.988Z,1016.56
2019-03-31T06:06:37.043Z,1016.54
2019-03-31T06:07:35.010Z,1016.48
2019-03-31T06:08:35.026Z,1016.49
2019-03-31T06:09:35.039Z,1016.54
2019-03-31T06:10:35.054Z,1016.45
2019-03-31T06:11:35.068Z,1016.44
2019-03-31T06:12:35.077Z,1016.44
2019-03-31T06:13:35.088Z,1016.43
2019-03-31T06:14:35.108Z,1016.46
2019-03-31T06:15:35.203Z,1016.46
2019-03-31T06:16:35.136Z,1016.48
2019-03-31T06:17:35.164Z,1016.46
2019-03-31T06:18:35.154Z,1016.49
2019-03-31T06:19:35.169Z,1016.53
2019-03-31T06:20:35.184Z,1016.52
2019-03-31T06:21:35.197Z,1016.53
2019-03-31T06:22:35.212Z,1016.54
2019-03-31T06:23:35.212Z,1016.57
2019-03-31T06:24:35.238Z,1016.54
2019-03-31T06:25:35.247Z,1016.53
2019-03-31T06:26:35.260Z,1016.54
2019-03-31T06:27:35.274Z,1016.50
2019-03-31T06:28:35.287Z,1016.49
2019-03-31T06:29:35.302Z,1016.55
2019-03-31T06:30:35.342Z,1016.56
2019-03-31T06:31:35.324Z,1016.54
2019-03-31T06:32:35.332Z,1016.60
2019-03-31T06:33:35.352Z,1016.50
2019-03-31T06:34:46.710Z,1016.52
2019-03-31T06:35:35.383Z,1016.56
2019-03-31T06:36:35.393Z,1016.56
2019-03-31T06:37:35.409Z,1016.56
2019-03-31T06:38:35.418Z,1016.61
2019-03-31T06:39:35.437Z,1016.57
2019-03-31T06:40:35.450Z,1016.60
2019-03-31T06:41:35.460Z,1016.60
2019-03-31T06:42:35.483Z,1016.62
2019-03-31T06:43:35.492Z,1016.59
2019-03-31T06:44:38.125Z,1016.65
2019-03-31T06:45:35.519Z,1016.67
2019-03-31T06:46:35.532Z,1016.71
2019-03-31T06:47:35.545Z,1016.68
2019-03-31T06:48:35.563Z,1016.65
2019-03-31T06:49:35.576Z,1016.69
2019-03-31T06:50:35.587Z,1016.65
2019-03-31T06:51:35.593Z,1016.71
2019-03-31T06:52:35.616Z,1016.64
2019-03-31T06:53:35.630Z,1016.66
2019-03-31T06:54:35.642Z,1016.66
2019-03-31T06:55:35.656Z,1016.67
2019-03-31T06:56:35.666Z,1016.67
2019-03-31T06:57:35.676Z,1016.67
2019-03-31T06:58:35.688Z,1016.72
2019-03-31T06:59:35.708Z,1016.69
2019-03-31T07:00:35.725Z,1016.68
2019-03-31T07:01:35.739Z,1016.74
2019-03-31T07:02:35.754Z,1016.71
2019-03-31T07:03:35.764Z,1016.72
2019-03-31T07:04:35.776Z,1016.71
2019-03-31T07:05:35.797Z,1016.75
2019-03-31T07:06:35.801Z,1016.73
2019-03-31T07:07:35.821Z,1016.78
2019-03-31T07:08:35.839Z,1016.78
2019-03-31T07:09:35.859Z,1016.78
2019-03-31T07:10:35.864Z,1016.87
2019-03-31T07:11:35.874Z,1016.90
2019-03-31T07:12:35.889Z,1016.91
2019-03-31T07:13:35.910Z,1016.90
2019-03-31T07:14:35.919Z,1016.95
2019-03-31T07:15:35.937Z,1016.95
2019-03-31T07:16:35.952Z,1016.92
2019-03-31T07:17:35.986Z,1016.90
2019-03-31T07:18:35.975Z,1016.94
2019-03-31T07:19:35.988Z,1016.90
2019-03-31T07:20:36.024Z,1016.88
2019-03-31T07:21:36.017Z,1016.90
2019-03-31T07:22:36.031Z,1016.82
2019-03-31T07:23:36.040Z,1016.82
2019-03-31T07:24:36.072Z,1016.85
2019-03-31T07:25:37.251Z,1016.85
2019-03-31T07:26:36.092Z,1016.86
2019-03-31T07:27:36.105Z,1016.87
2019-03-31T07:28:36.119Z,1016.85
2019-03-31T07:29:36.131Z,1016.89
2019-03-31T07:30:36.144Z,1016.91
2019-03-31T07:31:36.171Z,1016.90
2019-03-31T07:32:36.171Z,1016.89
2019-03-31T07:33:36.189Z,1016.92
2019-03-31T07:34:36.214Z,1016.90
2019-03-31T07:35:38.816Z,1016.92
2019-03-31T07:36:36.230Z,1016.92
2019-03-31T07:37:46.720Z,1016.95
2019-03-31T07:38:39.357Z,1016.89
2019-03-31T07:39:36.702Z,1016.90
2019-03-31T07:40:36.377Z,1016.90
2019-03-31T07:41:36.351Z,1016.91
2019-03-31T07:42:36.332Z,1016.89
2019-03-31T07:43:36.352Z,1016.84
2019-03-31T07:44:36.349Z,1016.85
2019-03-31T07:45:36.376Z,1016.92
2019-03-31T07:46:36.389Z,1016.89
2019-03-31T07:47:36.404Z,1016.88
2019-03-31T07:48:36.421Z,1016.90
2019-03-31T07:49:36.431Z,1016.88
2019-03-31T07:50:36.433Z,1016.95
2019-03-31T07:51:37.654Z,1016.95
2019-03-31T07:52:36.476Z,1017.01
2019-03-31T07:53:36.491Z,1017.00
2019-03-31T07:54:36.501Z,1017.05
2019-03-31T07:55:36.520Z,1017.04
2019-03-31T07:56:36.530Z,1017.03
2019-03-31T07:57:36.548Z,1017.07
2019-03-31T07:58:36.564Z,1017.09
2019-03-31T07:59:36.586Z,1017.18
2019-03-31T08:00:36.587Z,1017.17
2019-03-31T08:01:36.605Z,1017.19
2019-03-31T08:02:36.625Z,1017.16
2019-03-31T08:03:36.636Z,1017.17
2019-03-31T08:04:36.652Z,1017.23
2019-03-31T08:05:37.754Z,1017.24
2019-03-31T08:06:36.681Z,1017.23
2019-03-31T08:07:36.786Z,1017.26
2019-03-31T08:08:36.711Z,1017.28
2019-03-31T08:09:36.729Z,1017.26
2019-03-31T08:10:36.742Z,1017.26
2019-03-31T08:11:36.765Z,1017.27
2019-03-31T08:12:36.769Z,1017.25
2019-03-31T08:13:36.801Z,1017.25
2019-03-31T08:14:36.806Z,1017.30
2019-03-31T08:15:36.828Z,1017.31
2019-03-31T08:16:36.835Z,1017.31
2019-03-31T08:17:36.868Z,1017.35
2019-03-31T08:18:36.859Z,1017.36
2019-03-31T08:19:36.882Z,1017.32
2019-03-31T08:20:36.891Z,1017.31
2019-03-31T08:21:36.907Z,1017.30
2019-03-31T08:22:36.925Z,1017.37
2019-03-31T08:23:36.957Z,1017.31
2019-03-31T08:24:36.951Z,1017.32
2019-03-31T08:25:36.967Z,1017.34
2019-03-31T08:26:36.983Z,1017.36
2019-03-31T08:27:36.999Z,1017.34
2019-03-31T08:28:37.016Z,1017.38
2019-03-31T08:29:37.033Z,1017.42
2019-03-31T08:30:37.047Z,1017.47
2019-03-31T08:31:37.065Z,1017.44
2019-03-31T08:32:37.075Z,1017.50
2019-03-31T08:33:37.095Z,1017.48
2019-03-31T08:34:37.120Z,1017.52
2019-03-31T08:35:47.310Z,1017.52
2019-03-31T08:36:37.141Z,1017.54
2019-03-31T08:37:37.157Z,1017.56
2019-03-31T08:38:37.173Z,1017.50
2019-03-31T08:39:37.188Z,1017.53
2019-03-31T08:40:37.199Z,1017.51
2019-03-31T08:41:37.215Z,1017.53
2019-03-31T08:42:37.236Z,1017.53
2019-03-31T08:43:37.245Z,1017.53
2019-03-31T08:44:37.261Z,1017.53
2019-03-31T08:45:37.279Z,1017.51
2019-03-31T08:46:37.291Z,1017.52
2019-03-31T08:47:37.319Z,1017.49
2019-03-31T08:48:37.323Z,1017.47
2019-03-31T08:49:37.346Z,1017.46
2019-03-31T08:50:37.358Z,1017.49
2019-03-31T08:51:37.367Z,1017.49
2019-03-31T08:52:37.388Z,1017.45
2019-03-31T08:53:37.404Z,1017.49
2019-03-31T08:54:37.424Z,1017.49
2019-03-31T08:55:37.542Z,1017.44
2019-03-31T08:56:37.450Z,1017.44
2019-03-31T08:57:37.466Z,1017.46
2019-03-31T08:58:37.484Z,1017.48
2019-03-31T08:59:37.494Z,1017.50
2019-03-31T09:00:37.510Z,1017.47
2019-03-31T09:01:37.529Z,1017.50
2019-03-31T09:02:37.544Z,1017.51
2019-03-31T09:03:37.563Z,1017.54
2019-03-31T09:04:37.573Z,1017.55
2019-03-31T09:05:37.592Z,1017.53
2019-03-31T09:06:37.608Z,1017.58
2019-03-31T09:07:37.619Z,1017.55
2019-03-31T09:08:37.636Z,1017.58
2019-03-31T09:09:37.642Z,1017.53
2019-03-31T09:10:37.665Z,1017.61
2019-03-31T09:11:37.682Z,1017.55
2019-03-31T09:12:37.696Z,1017.59
2019-03-31T09:13:37.716Z,1017.55
2019-03-31T09:14:37.734Z,1017.55
2019-03-31T09:15:37.742Z,1017.57
2019-03-31T09:16:37.764Z,1017.59
2019-03-31T09:17:37.782Z,1017.55
2019-03-31T09:18:37.791Z,1017.57
2019-03-31T09:19:37.811Z,1017.57
2019-03-31T09:20:37.844Z,1017.59
2019-03-31T09:21:37.845Z,1017.60
2019-03-31T09:22:37.862Z,1017.62
2019-03-31T09:23:37.879Z,1017.60
2019-03-31T09:24:37.880Z,1017.59
2019-03-31T09:25:37.907Z,1017.60
2019-03-31T09:26:37.923Z,1017.58
2019-03-31T09:27:37.944Z,1017.63
2019-03-31T09:28:37.984Z,1017.64
2019-03-31T09:29:37.981Z,1017.64
2019-03-31T09:30:38.347Z,1017.70
2019-03-31T09:31:38.006Z,1017.65
2019-03-31T09:32:38.020Z,1017.69
2019-03-31T09:33:39.578Z,1017.69
2019-03-31T09:34:38.059Z,1017.73
2019-03-31T09:35:38.074Z,1017.71
2019-03-31T09:36:38.098Z,1017.75
2019-03-31T09:37:38.122Z,1017.70
2019-03-31T09:38:38.131Z,1017.76
2019-03-31T09:39:38.152Z,1017.76
2019-03-31T09:40:38.158Z,1017.78
2019-03-31T09:41:38.177Z,1017.77
2019-03-31T09:42:38.188Z,1017.70
2019-03-31T09:43:38.205Z,1017.80
2019-03-31T09:44:38.243Z,1017.73
2019-03-31T09:45:38.253Z,1017.73
2019-03-31T09:46:38.325Z,1017.77
2019-03-31T09:47:38.279Z,1017.75
2019-03-31T09:48:38.337Z,1017.71
2019-03-31T09:49:38.391Z,1017.68
2019-03-31T09:50:38.391Z,1017.77
2019-03-31T09:51:38.339Z,1017.76
2019-03-31T09:52:38.376Z,1017.80
2019-03-31T09:53:38.383Z,1017.82
2019-03-31T09:54:38.394Z,1017.79
2019-03-31T09:55:38.414Z,1017.81
2019-03-31T09:56:38.436Z,1017.82
2019-03-31T09:57:38.449Z,1017.84
2019-03-31T09:58:38.464Z,1017.82
2019-03-31T09:59:38.480Z,1017.78
2019-03-31T10:00:38.508Z,1017.82
2019-03-31T10:01:38.520Z,1018.06
2019-03-31T10:02:38.560Z,1018.15
2019-03-31T10:03:38.556Z,1018.26
2019-03-31T10:04:38.574Z,1018.19
2019-03-31T10:05:38.592Z,1017.96
2019-03-31T10:06:38.610Z,1018.17
2019-03-31T10:07:38.623Z,1018.26
2019-03-31T10:08:38.651Z,1017.93
2019-03-31T10:09:38.660Z,1017.86
2019-03-31T10:10:38.680Z,1018.24
2019-03-31T10:11:38.689Z,1018.24
2019-03-31T10:12:38.711Z,1018.13
2019-03-31T10:13:38.816Z,1017.84
2019-03-31T10:14:38.757Z,1017.84
2019-03-31T10:15:38.798Z,1017.89
2019-03-31T10:16:38.791Z,1018.04
2019-03-31T10:17:38.902Z,1018.11
2019-03-31T10:18:38.828Z,1017.85
2019-03-31T10:19:38.848Z,1018.02
2019-03-31T10:20:38.872Z,1017.90
2019-03-31T10:21:38.890Z,1018.05
2019-03-31T10:22:38.899Z,1018.22
2019-03-31T10:23:38.909Z,1017.98
2019-03-31T10:24:38.935Z,1017.97
2019-03-31T10:25:38.958Z,1018.03
2019-03-31T10:26:38.997Z,1017.97
2019-03-31T10:27:38.988Z,1017.88
2019-03-31T10:28:39.014Z,1017.90
2019-03-31T10:29:39.040Z,1017.86
2019-03-31T10:30:39.055Z,1017.84
2019-03-31T10:31:39.059Z,1017.89
2019-03-31T10:32:39.107Z,1017.87
2019-03-31T10:33:39.103Z,1017.87
2019-03-31T10:34:39.105Z,1017.90
2019-03-31T10:35:39.144Z,1017.85
2019-03-31T10:36:44.715Z,1017.83
2019-03-31T10:37:39.171Z,1017.87
2019-03-31T10:38:39.189Z,1017.87
2019-03-31T10:39:39.211Z,1017.84
2019-03-31T10:40:39.224Z,1017.88
2019-03-31T10:41:39.240Z,1017.87
2019-03-31T10:42:39.261Z,1017.92
2019-03-31T10:43:39.279Z,1017.92
2019-03-31T10:44:39.291Z,1017.89
2019-03-31T10:45:39.321Z,1017.93
2019-03-31T10:46:39.339Z,1017.97
2019-03-31T10:47:39.345Z,1017.95
2019-03-31T10:48:39.363Z,1017.94
2019-03-31T10:49:39.394Z,1017.97
2019-03-31T10:50:39.401Z,1017.96
2019-03-31T10:51:39.419Z,1017.96
2019-03-31T10:52:39.443Z,1017.99
2019-03-31T10:53:39.467Z,1017.99
2019-03-31T10:54:39.474Z,1018.03
2019-03-31T10:55:39.489Z,1018.17
2019-03-31T10:56:39.508Z,1018.15
2019-03-31T10:57:39.528Z,1018.32
2019-03-31T10:58:39.548Z,1018.31
2019-03-31T10:59:39.557Z,1018.12
2019-03-31T11:00:39.581Z,1018.13
2019-03-31T11:01:39.591Z,1018.10
2019-03-31T11:02:39.609Z,1018.11
2019-03-31T11:03:39.629Z,1018.12
2019-03-31T11:04:39.655Z,1018.12
2019-03-31T11:05:39.663Z,1018.08
2019-03-31T11:06:39.679Z,1018.04
2019-03-31T11:07:39.698Z,1018.12
2019-03-31T11:08:39.707Z,1018.06
2019-03-31T11:09:39.729Z,1018.07
2019-03-31T11:10:39.762Z,1018.03
2019-03-31T11:11:40.555Z,1018.05
2019-03-31T11:12:39.785Z,1018.06
2019-03-31T11:13:39.797Z,1018.17
2019-03-31T11:14:39.818Z,1018.10
2019-03-31T11:15:39.836Z,1018.14
2019-03-31T11:16:39.854Z,1018.19
2019-03-31T11:17:39.869Z,1018.16
2019-03-31T11:18:39.886Z,1018.18
2019-03-31T11:19:39.906Z,1018.33
2019-03-31T11:20:39.961Z,1018.32
2019-03-31T11:21:40.495Z,1018.29
2019-03-31T11:22:40.034Z,1018.18
2019-03-31T11:23:40.008Z,1018.11
2019-03-31T11:24:39.992Z,1018.12
2019-03-31T11:25:40.019Z,1018.14
2019-03-31T11:26:40.047Z,1018.10
2019-03-31T11:27:40.038Z,1018.10
2019-03-31T11:28:40.066Z,1018.11
2019-03-31T11:29:40.085Z,1018.14
2019-03-31T11:30:40.105Z,1018.06
2019-03-31T11:31:40.115Z,1018.18
2019-03-31T11:32:40.132Z,1018.15
2019-03-31T11:33:40.154Z,1018.14
2019-03-31T11:34:40.168Z,1018.16
2019-03-31T11:35:40.191Z,1018.39
2019-03-31T11:36:40.187Z,1018.26
2019-03-31T11:37:40.211Z,1018.32
2019-03-31T11:38:40.253Z,1018.43
2019-03-31T11:39:40.247Z,1018.32
2019-03-31T11:40:40.280Z,1018.30
2019-03-31T11:41:40.281Z,1018.31
2019-03-31T11:42:40.303Z,1018.34
2019-03-31T11:43:40.316Z,1018.33
2019-03-31T11:44:40.336Z,1018.57
2019-03-31T11:45:40.351Z,1018.54
2019-03-31T11:46:40.442Z,1018.52
2019-03-31T11:47:40.392Z,1018.68
2019-03-31T11:48:40.436Z,1018.59
2019-03-31T11:49:40.441Z,1018.71
2019-03-31T11:50:40.436Z,1018.63
2019-03-31T11:51:40.454Z,1018.67
2019-03-31T11:52:40.473Z,1018.73
2019-03-31T11:53:40.491Z,1018.54
2019-03-31T11:54:40.516Z,1018.57
2019-03-31T11:55:40.523Z,1018.47
2019-03-31T11:56:40.551Z,1018.60
2019-03-31T11:57:40.561Z,1018.61
2019-03-31T11:58:40.587Z,1018.63
2019-03-31T11:59:40.602Z,1018.67
2019-03-31T12:00:40.611Z,1018.50
2019-03-31T12:01:40.634Z,1018.53
2019-03-31T12:02:40.651Z,1018.67
2019-03-31T12:03:40.673Z,1018.58
2019-03-31T12:04:40.689Z,1018.50
2019-03-31T12:05:40.704Z,1018.47